Terminal Aerodrome Forecast
Issued by NWS St Louis, MO

Home | Current Version | Previous Version | Text Only | Print | Product List | Glossary On
Versions: 1 2 3 4 5 6 7 8 9 10 11 12 13 14 15 16 17 18 19 20 21 22 23 24 25 26 27 28 29 30
000
FTUS43 KLSX 262102 AAC
TAFSTL
TAF AMD
KSTL 262102Z 2621/2724 04010G20KT P6SM SCT050 BKN080
      TEMPO 2621/2622 5SM -TSRA BKN040CB
     FM262200 10008KT P6SM SCT050 BKN250
     FM271000 11010KT 4SM -RA BR VCTS OVC040CB
     FM271500 17012G18KT P6SM OVC045=

USA.gov is the U.S. government's official web portal to all federal, state and local government web resources and services.